Terminal Aerodrome Forecast
Issued by NWS Greer, SC

Home | Current Version | Previous Version | Text Only | Print | Product List | Glossary On
Versions: 1 2 3 4 5 6 7 8 9 10 11 12 13 14 15 16 17 18 19 20 21
000
FTUS42 KGSP 230059 AAA
TAFGSP
TAF AMD
KGSP 230059Z 2301/2324 VRB03KT P6SM VCSH SCT015 BKN120
      TEMPO 2301/2305 BKN015 OVC120
     FM230500 20003KT 5SM -SHRA BR OVC008
     FM231500 22006KT 3SM -SHRA OVC008
     FM231800 23006KT P6SM -SHRA OVC020 PROB30 2318/2324 4SM TSRA
      OVC015CB=

USA.gov is the U.S. government's official web portal to all federal, state and local government web resources and services.